Time;durP1;ratioP1;P1;durP2;ratioP2;P2;SDS_P1;SDS_P2;PMS_P1;PMS_P2;Temp;Humidity;BMP_temperature;BMP_pressure;BME280_temperature;BME280_humidity;BME280_pressure;Samples;Min_cycle;Max_cycle;Signal;HPM_P1;HPM_P2
2022/03/23 00:00:38;;;;;;;;;;;4.30;99.90;;;2.58;81.17;102592.38;2567800;30;137031;-41
2022/03/23 00:03:06;;;;;;;;;;;4.30;99.90;;;2.57;81.90;102590.66;2568997;30;138742;-41
2022/03/23 00:05:33;;;;;;;;;;;4.20;99.90;;;2.59;82.38;102592.28;2567749;30;136983;-41
2022/03/23 00:08:01;;;;;;;;;;;4.20;99.90;;;2.55;82.68;102595.31;2566976;30;138606;-41
2022/03/23 00:10:29;;;;;;;;;;;4.20;99.90;;;2.49;82.84;102585.84;2568722;30;136769;-41
2022/03/23 00:12:58;;;;;;;;;;;4.10;99.90;;;2.46;83.64;102582.53;2567135;30;137503;-41
2022/03/23 00:15:27;;;;;;;;;;;4.10;99.90;;;2.43;83.54;102592.56;2568792;30;137243;-41
2022/03/23 00:17:55;;;;;;;;;;;4.10;99.90;;;2.40;83.96;102595.50;2568337;30;139068;-41
2022/03/23 00:20:24;;;;;;;;;;;4.00;99.90;;;2.38;84.67;102596.56;2568844;30;137730;-40
2022/03/23 00:22:52;;;;;;;;;;;4.00;99.90;;;2.36;84.79;102594.00;2569539;30;139188;-41
2022/03/23 00:25:20;;;;;;;;;;;4.00;99.90;;;2.35;85.15;102591.44;2568468;30;137890;-41
2022/03/23 00:27:48;;;;;;;;;;;4.00;99.90;;;2.33;85.37;102596.06;2569395;30;138443;-41
2022/03/23 00:30:15;;;;;;;;;;;4.00;99.90;;;2.31;84.78;102601.56;2569769;30;137022;-41
2022/03/23 00:32:42;;;;;;;;;;;3.90;99.90;;;2.25;84.87;102597.47;2568026;30;139040;-41
2022/03/23 00:35:10;;;;;;;;;;;3.90;99.90;;;2.18;85.22;102596.22;2567229;30;137353;-40
2022/03/23 00:37:37;;;;;;;;;;;3.80;99.90;;;2.11;84.93;102595.81;2567978;30;140596;-41
2022/03/23 00:40:05;;;;;;;;;;;3.80;99.90;;;2.08;85.73;102601.41;2568688;30;138711;-41
2022/03/23 00:42:33;;;;;;;;;;;3.70;99.90;;;2.03;86.15;102603.59;2568561;30;138346;-41
2022/03/23 00:45:03;;;;;;;;;;;3.70;99.90;;;1.97;86.90;102594.13;2567946;30;138504;-41
2022/03/23 00:47:30;;;;;;;;;;;3.60;99.90;;;1.88;87.62;102588.59;2569824;30;139128;-41
2022/03/23 00:49:58;;;;;;;;;;;3.60;99.90;;;1.89;87.58;102599.22;2569370;30;137070;-41
2022/03/23 00:52:26;;;;;;;;;;;3.50;99.90;;;1.87;87.40;102593.09;2568668;30;138794;-41
2022/03/23 00:54:54;;;;;;;;;;;3.50;99.90;;;1.85;87.69;102598.56;2568294;30;137385;-41
2022/03/23 00:57:21;;;;;;;;;;;3.50;99.90;;;1.89;88.10;102601.91;2568382;30;137086;-40
2022/03/23 00:59:49;;;;;;;;;;;3.50;99.90;;;1.89;87.84;102599.22;2568389;30;139426;-41
2022/03/23 01:02:16;;;;;;;;;;;3.50;99.90;;;1.86;87.39;102603.00;2567264;30;138431;-41
2022/03/23 01:04:44;;;;;;;;;;;3.50;99.90;;;1.85;86.93;102597.72;2568782;30;136643;-41
2022/03/23 01:07:11;;;;;;;;;;;3.50;99.90;;;1.34;87.14;102515.28;2568332;30;138270;-40
2022/03/23 01:09:39;;;;;;;;;;;3.50;99.90;;;1.77;87.29;102592.06;2569546;30;136804;-39
2022/03/23 01:12:13;;;;;;;;;;;3.50;99.90;;;1.72;89.59;102595.06;2571282;30;136879;-42
2022/03/23 01:14:53;;;;;;;;;;;3.40;99.90;;;1.70;88.82;102588.94;2568155;30;136968;-41
2022/03/23 01:17:32;;;;;;;;;;;3.40;99.90;;;1.73;87.83;102588.72;2567974;30;137237;-41
2022/03/23 01:20:12;;;;;;;;;;;3.40;99.90;;;1.77;87.13;102594.75;2570067;30;137016;-42
2022/03/23 01:22:52;;;;;;;;;;;3.40;99.90;;;1.76;87.40;102590.34;2570454;30;136813;-41
2022/03/23 01:25:31;;;;;;;;;;;3.40;99.90;;;1.73;86.80;102586.03;2570902;30;137090;-41
2022/03/23 01:28:11;;;;;;;;;;;3.40;99.90;;;1.72;86.98;102590.56;2568879;30;137267;-41
2022/03/23 01:30:50;;;;;;;;;;;3.40;99.90;;;1.70;86.91;102586.25;2570190;30;136832;-42
2022/03/23 01:33:29;;;;;;;;;;;3.40;99.90;;;1.68;87.67;102580.97;2569861;30;136907;-42
2022/03/23 01:36:10;;;;;;;;;;;3.40;99.90;;;1.71;88.45;102583.44;2567105;30;136932;-42
2022/03/23 01:38:50;;;;;;;;;;;3.40;99.90;;;1.71;88.12;102582.59;2568708;30;137151;-41
2022/03/23 01:41:34;;;;;;;;;;;3.40;99.90;;;1.72;88.78;102584.31;2570218;30;136819;-42
2022/03/23 01:44:19;;;;;;;;;;;3.40;99.90;;;1.69;88.93;102585.38;2571390;30;137260;-42
2022/03/23 01:47:07;;;;;;;;;;;3.40;99.90;;;1.68;89.46;102585.50;2566400;30;136715;-44
2022/03/23 01:49:36;;;;;;;;;;;3.40;99.90;;;1.66;88.75;102574.00;2568068;30;139623;-42
2022/03/23 01:52:06;;;;;;;;;;;3.30;99.90;;;1.61;88.12;102573.47;2567138;30;137259;-42
2022/03/23 01:54:35;;;;;;;;;;;3.30;99.90;;;1.63;87.81;102579.59;2567218;30;138605;-41
2022/03/23 01:57:04;;;;;;;;;;;3.30;99.90;;;1.57;87.48;102579.03;2569108;30;137917;-42
2022/03/23 01:59:33;;;;;;;;;;;3.30;99.90;;;1.52;87.48;102578.50;2569318;30;138406;-42
2022/03/23 02:02:01;;;;;;;;;;;3.20;99.90;;;1.50;86.96;102577.75;2569971;30;139205;-42
2022/03/23 02:04:32;;;;;;;;;;;3.20;99.90;;;1.48;87.51;102581.56;2565700;30;139767;-41
2022/03/23 02:06:59;;;;;;;;;;;3.20;99.90;;;1.42;88.35;102575.63;2569627;30;138526;-42
2022/03/23 02:09:30;;;;;;;;;;;3.10;99.90;;;1.47;89.32;102577.16;2569250;30;139418;-42
2022/03/23 02:12:07;;;;;;;;;;;3.10;99.90;;;1.43;89.73;102574.66;2569998;30;137891;-41
2022/03/23 02:14:35;;;;;;;;;;;3.10;99.90;;;1.39;90.18;102572.31;2571209;30;140447;-42
2022/03/23 02:17:04;;;;;;;;;;;3.10;99.90;;;1.35;90.20;102570.81;2569432;30;136601;-42
2022/03/23 02:19:33;;;;;;;;;;;3.00;99.90;;;1.31;89.80;102572.84;2568342;30;139660;-41
2022/03/23 02:22:02;;;;;;;;;;;3.00;99.90;;;1.25;89.13;102563.38;2567806;30;137164;-42
2022/03/23 02:24:31;;;;;;;;;;;3.00;99.90;;;1.16;89.35;102561.34;2569503;30;140899;-41
2022/03/23 02:27:00;;;;;;;;;;;2.90;99.90;;;1.18;89.59;102570.16;2569540;30;137747;-41
2022/03/23 02:29:31;;;;;;;;;;;2.90;99.90;;;1.16;89.47;102572.09;2570236;30;138395;-41
2022/03/23 02:32:04;;;;;;;;;;;2.80;99.90;;;1.13;89.51;102572.31;2569553;30;137190;-42
2022/03/23 02:34:32;;;;;;;;;;;2.80;99.90;;;1.13;89.13;102569.63;2569530;30;138616;-41
2022/03/23 02:37:00;;;;;;;;;;;2.80;99.90;;;1.11;89.26;102569.72;2569669;30;137859;-42
2022/03/23 02:39:28;;;;;;;;;;;2.80;99.90;;;1.09;88.99;102565.44;2569840;30;138148;-42
2022/03/23 02:41:56;;;;;;;;;;;2.80;99.90;;;1.08;89.19;102561.88;2569155;30;137676;-42
2022/03/23 02:44:29;;;;;;;;;;;2.80;99.90;;;1.06;89.13;102563.81;2568229;30;138401;-41
2022/03/23 02:46:57;;;;;;;;;;;2.70;99.90;;;0.95;88.75;102551.09;2568520;30;136849;-41
2022/03/23 02:49:25;;;;;;;;;;;2.70;99.90;;;1.02;89.16;102564.13;2569453;30;138228;-42
2022/03/23 02:51:53;;;;;;;;;;;2.70;99.90;;;0.99;88.95;102563.34;2567282;30;137566;-42
2022/03/23 03:03:01;;;;;;;;;;;2.70;99.90;;;0.96;89.44;102563.56;2568906;30;136661;-42
2022/03/23 03:05:28;;;;;;;;;;;2.70;99.90;;;0.98;89.42;102564.34;2568812;30;138886;-42
2022/03/23 03:10:41;;;;;;;;;;;2.70;99.90;;;0.98;90.59;102569.72;2568238;30;138218;-41
2022/03/23 03:13:08;;;;;;;;;;;2.70;99.90;;;0.96;90.53;102565.44;2569229;30;137845;-42
2022/03/23 03:15:36;;;;;;;;;;;2.60;99.90;;;0.93;90.57;102566.47;2569386;30;139560;-41
2022/03/23 03:18:03;;;;;;;;;;;2.60;99.90;;;0.91;90.54;102572.91;2568307;30;137001;-42
2022/03/23 03:20:31;;;;;;;;;;;2.60;99.90;;;0.87;90.95;102574.97;2568382;30;137841;-42
2022/03/23 03:22:58;;;;;;;;;;;2.60;99.90;;;0.84;90.84;102573.34;2569384;30;137122;-41
2022/03/23 03:25:26;;;;;;;;;;;2.60;99.90;;;0.86;90.86;102570.56;2570362;30;138232;-41
2022/03/23 03:27:53;;;;;;;;;;;2.50;99.90;;;0.79;91.02;102569.25;2569249;30;137816;-42
2022/03/23 03:30:20;;;;;;;;;;;2.50;99.90;;;0.71;91.92;102576.00;2570041;30;137231;-41
2022/03/23 03:32:48;;;;;;;;;;;2.40;99.90;;;0.66;92.01;102569.22;2569773;30;137014;-41
2022/03/23 03:35:15;;;;;;;;;;;2.30;99.90;;;0.62;92.05;102573.09;2570712;30;137305;-41
2022/03/23 03:37:43;;;;;;;;;;;2.30;99.90;;;0.62;91.20;102576.66;2568282;30;136863;-41
2022/03/23 03:40:11;;;;;;;;;;;2.30;99.90;;;0.62;91.47;102575.78;2567895;30;138948;-42
2022/03/23 03:42:39;;;;;;;;;;;2.30;99.90;;;0.61;91.64;102576.75;2569100;30;138045;-42
2022/03/23 03:45:08;;;;;;;;;;;2.30;99.90;;;0.63;92.45;102585.56;2568200;30;137291;-41
2022/03/23 03:47:35;;;;;;;;;;;2.30;99.90;;;0.61;93.25;102583.00;2568440;30;138033;-41
2022/03/23 03:50:03;;;;;;;;;;;2.30;99.90;;;0.55;93.61;102580.72;2569745;30;138899;-41
2022/03/23 03:52:30;;;;;;;;;;;2.30;99.90;;;0.55;93.57;102586.09;2569303;30;138070;-41
2022/03/23 03:54:58;;;;;;;;;;;2.20;99.90;;;0.52;93.26;102589.84;2568038;30;138204;-41
2022/03/23 03:57:25;;;;;;;;;;;2.20;99.90;;;0.48;93.08;102588.31;2568305;30;137044;-41
2022/03/23 03:59:53;;;;;;;;;;;2.20;99.90;;;0.44;92.85;102581.44;2569356;30;137462;-42
2022/03/23 04:02:20;;;;;;;;;;;2.10;99.90;;;0.41;92.70;102582.50;2568530;30;137797;-42
2022/03/23 04:04:48;;;;;;;;;;;2.10;99.90;;;0.37;92.84;102586.34;2569709;30;138370;-42
2022/03/23 04:07:15;;;;;;;;;;;2.00;99.90;;;0.33;93.40;102581.28;2569149;30;137091;-42
2022/03/23 04:09:43;;;;;;;;;;;2.00;99.90;;;0.32;93.69;102584.94;2567386;30;138262;-41
2022/03/23 04:12:10;;;;;;;;;;;2.00;99.90;;;0.33;93.79;102589.34;2569444;30;137230;-42
2022/03/23 04:14:37;;;;;;;;;;;2.00;99.90;;;0.35;93.31;102593.66;2569513;30;137186;-42
2022/03/23 04:17:05;;;;;;;;;;;2.00;99.90;;;0.36;93.45;102590.00;2570670;30;137887;-42
2022/03/23 04:19:33;;;;;;;;;;;2.10;99.90;;;0.36;93.31;102590.00;2571957;30;137266;-41
2022/03/23 04:22:00;;;;;;;;;;;2.00;99.90;;;0.34;93.68;102602.66;2571284;30;137106;-42
2022/03/23 04:24:27;;;;;;;;;;;2.00;99.90;;;0.31;93.86;102594.81;2570048;30;138138;-41
2022/03/23 04:26:55;;;;;;;;;;;2.00;99.90;;;0.33;93.85;102600.94;2568663;30;137624;-41
2022/03/23 04:29:24;;;;;;;;;;;2.00;99.90;;;0.35;93.82;102593.66;2571103;30;137345;-43
2022/03/23 04:31:52;;;;;;;;;;;2.00;99.90;;;0.34;93.60;102597.28;2569792;30;136987;-41
2022/03/23 04:34:20;;;;;;;;;;;2.00;99.90;;;0.36;93.65;102598.06;2568912;30;138098;-41
2022/03/23 04:36:47;;;;;;;;;;;2.00;99.90;;;0.30;93.75;102601.16;2570839;30;138326;-41
2022/03/23 04:39:15;;;;;;;;;;;2.00;99.90;;;0.34;93.89;102602.66;2569443;30;138521;-41
2022/03/23 04:41:42;;;;;;;;;;;2.00;99.90;;;0.36;94.55;102600.75;2567637;30;137313;-41
2022/03/23 04:44:11;;;;;;;;;;;2.00;99.90;;;0.34;94.69;102604.47;2572485;30;139210;-41
2022/03/23 04:46:38;;;;;;;;;;;2.00;99.90;;;0.32;94.75;102607.28;2568582;30;138000;-41
2022/03/23 04:49:06;;;;;;;;;;;2.00;99.90;;;0.28;94.92;102611.97;2570571;30;138125;-41
2022/03/23 04:51:33;;;;;;;;;;;2.00;99.90;;;0.28;95.18;102603.94;2571950;30;136958;-41
2022/03/23 04:54:02;;;;;;;;;;;1.90;99.90;;;0.31;95.23;102610.06;2570487;30;138191;-41
2022/03/23 04:56:29;;;;;;;;;;;1.90;99.90;;;0.28;94.95;102614.66;2568297;30;136933;-41
2022/03/23 04:58:57;;;;;;;;;;;1.90;99.90;;;0.27;95.22;102610.25;2570071;30;137914;-41
2022/03/23 05:01:24;;;;;;;;;;;1.90;99.90;;;0.29;95.72;102615.53;2568797;30;137249;-42
2022/03/23 05:03:52;;;;;;;;;;;1.90;99.90;;;0.27;95.50;102615.63;2570159;30;139165;-41
2022/03/23 05:06:20;;;;;;;;;;;1.90;99.90;;;0.20;95.25;102619.69;2570876;30;137064;-42
2022/03/23 05:08:47;;;;;;;;;;;1.90;99.90;;;0.13;95.42;102629.94;2570987;30;138552;-41
2022/03/23 05:11:14;;;;;;;;;;;1.90;99.90;;;0.12;95.54;102625.53;2569964;30;137132;-42
2022/03/23 05:13:42;;;;;;;;;;;1.80;99.90;;;0.10;95.68;102619.41;2567701;30;137640;-42
2022/03/23 05:16:10;;;;;;;;;;;1.80;99.90;;;0.10;96.22;102631.97;2570866;30;136956;-39
2022/03/23 05:18:37;;;;;;;;;;;1.80;99.90;;;0.06;96.16;102633.13;2566993;30;139913;-42
2022/03/23 05:21:04;;;;;;;;;;;1.70;99.90;;;0.06;96.24;102630.44;2568962;30;136937;-42
2022/03/23 05:23:32;;;;;;;;;;;1.70;99.90;;;0.06;96.25;102630.44;2569813;30;136696;-41
2022/03/23 05:26:00;;;;;;;;;;;1.70;99.90;;;0.07;96.34;102627.69;2570125;30;137593;-42
2022/03/23 05:28:30;;;;;;;;;;;1.70;99.90;;;0.08;96.06;102633.88;2569168;30;137624;-41
2022/03/23 05:30:57;;;;;;;;;;;1.70;99.90;;;0.08;96.26;102629.41;2569948;30;137077;-41
2022/03/23 05:33:25;;;;;;;;;;;1.80;99.90;;;0.09;96.18;102630.25;2570385;30;138493;-42
2022/03/23 05:35:53;;;;;;;;;;;1.70;99.90;;;0.07;96.16;102637.53;2569488;30;136810;-41
2022/03/23 05:38:20;;;;;;;;;;;1.80;99.90;;;0.06;96.70;102631.31;2570424;30;138317;-41
2022/03/23 05:40:48;;;;;;;;;;;1.80;99.90;;;0.06;96.89;102628.63;2569957;30;136683;-41
2022/03/23 05:43:15;;;;;;;;;;;1.70;99.90;;;0.05;97.00;102639.47;2568455;30;138390;-41
2022/03/23 05:45:43;;;;;;;;;;;1.70;99.90;;;0.05;96.97;102634.97;2569532;30;136796;-41
2022/03/23 05:48:10;;;;;;;;;;;1.70;99.90;;;0.06;97.15;102622.38;2569909;30;137917;-42
2022/03/23 05:50:38;;;;;;;;;;;1.80;99.90;;;0.20;97.05;102637.59;2567567;30;137900;-42
2022/03/23 05:53:07;;;;;;;;;;;1.80;99.90;;;0.22;96.50;102636.56;2568960;30;138151;-42
2022/03/23 05:55:34;;;;;;;;;;;1.80;99.90;;;0.24;96.57;102642.69;2569510;30;137852;-41
2022/03/23 05:58:03;;;;;;;;;;;1.90;99.90;;;0.28;96.94;102635.31;2566800;30;139012;-42
2022/03/23 06:00:31;;;;;;;;;;;1.90;99.90;;;0.28;97.46;102643.34;2568406;30;137940;-41
2022/03/23 06:02:59;;;;;;;;;;;1.90;99.90;;;0.31;97.68;102640.47;2570491;30;137677;-42
2022/03/23 06:05:26;;;;;;;;;;;1.90;99.90;;;0.34;97.65;102655.50;2569276;30;136676;-42
2022/03/23 06:07:54;;;;;;;;;;;2.00;99.90;;;0.35;97.30;102641.97;2568155;30;139009;-42
2022/03/23 06:10:22;;;;;;;;;;;2.00;99.90;;;0.40;97.17;102645.22;2569552;30;136958;-42
2022/03/23 06:12:49;;;;;;;;;;;2.00;99.90;;;0.45;97.05;102636.00;2570573;30;138354;-42
2022/03/23 06:15:18;;;;;;;;;;;2.10;99.90;;;0.46;96.60;102635.03;2567211;30;137140;-41
2022/03/23 06:17:45;;;;;;;;;;;2.10;99.90;;;0.59;96.58;102645.81;2567403;30;137687;-46
2022/03/23 06:20:14;;;;;;;;;;;2.20;99.90;;;0.65;96.56;102646.28;2569268;30;137269;-41
2022/03/23 06:22:42;;;;;;;;;;;2.20;99.90;;;0.78;97.37;102650.81;2569580;30;137288;-42
2022/03/23 06:25:10;;;;;;;;;;;2.30;99.90;;;0.90;98.39;102652.72;2569926;30;137070;-41
2022/03/23 06:27:38;;;;;;;;;;;2.40;99.90;;;0.97;98.44;102648.63;2569694;30;138458;-42
2022/03/23 06:30:06;;;;;;;;;;;2.50;99.90;;;1.05;98.21;102660.69;2570442;30;137981;-42
2022/03/23 06:32:34;;;;;;;;;;;2.60;99.90;;;1.19;98.25;102654.34;2567161;30;137519;-41
2022/03/23 06:35:03;;;;;;;;;;;2.70;99.90;;;1.34;98.94;102658.69;2570401;30;137255;-42
2022/03/23 06:37:34;;;;;;;;;;;2.80;99.90;;;1.46;98.83;102665.03;2569345;30;139037;-44
2022/03/23 06:40:03;;;;;;;;;;;2.90;99.90;;;1.57;97.72;102670.53;2568425;30;137162;-42
2022/03/23 06:42:31;;;;;;;;;;;3.00;99.90;;;1.68;97.02;102668.91;2569366;30;138364;-42
2022/03/23 06:44:59;;;;;;;;;;;3.10;99.90;;;1.79;97.37;102674.38;2570536;30;136895;-44
2022/03/23 06:47:26;;;;;;;;;;;3.20;99.90;;;1.86;97.87;102673.00;2569060;30;139128;-41
2022/03/23 06:49:54;;;;;;;;;;;3.30;99.90;;;1.96;98.78;102683.94;2570046;30;136826;-40
2022/03/23 06:52:21;;;;;;;;;;;3.40;99.90;;;2.07;98.73;102677.78;2568732;30;137199;-41
2022/03/23 06:54:49;;;;;;;;;;;3.50;99.90;;;2.24;99.28;102678.41;2569480;30;138470;-42
2022/03/23 06:57:16;;;;;;;;;;;3.60;99.90;;;2.42;99.91;102678.91;2569296;30;138650;-42
2022/03/23 06:59:44;;;;;;;;;;;3.80;99.90;;;2.65;100.00;102671.81;2570256;30;137343;-42
2022/03/23 07:02:11;;;;;;;;;;;4.00;99.90;;;2.91;99.17;102687.00;2569610;30;138205;-44
2022/03/23 07:04:39;;;;;;;;;;;4.20;99.90;;;3.16;97.59;102683.28;2569368;30;136923;-41
2022/03/23 07:07:06;;;;;;;;;;;4.40;99.90;;;3.42;95.42;102681.28;2576147;30;138900;-41
2022/03/23 07:09:35;;;;;;;;;;;4.70;99.90;;;3.69;94.20;102685.47;2566416;30;136992;-40
2022/03/23 07:12:06;;;;;;;;;;;4.90;99.90;;;3.94;91.38;102688.06;2567341;30;136948;-41
2022/03/23 07:14:35;;;;;;;;;;;5.20;99.90;;;4.20;89.17;102687.78;2564484;30;137457;-41
2022/03/23 07:17:04;;;;;;;;;;;5.40;99.90;;;4.44;88.66;102691.19;2565223;30;138116;-40
2022/03/23 07:19:32;;;;;;;;;;;5.60;99.90;;;4.69;85.40;102688.34;2567764;30;138150;-41
2022/03/23 07:22:00;;;;;;;;;;;5.80;99.90;;;4.93;85.08;102688.09;2568957;30;138353;-41
2022/03/23 07:24:27;;;;;;;;;;;6.00;99.90;;;5.09;83.97;102679.53;2567272;30;137036;-40
2022/03/23 07:26:55;;;;;;;;;;;6.20;99.90;;;5.40;84.14;102697.72;2567938;30;137415;-41
2022/03/23 07:29:42;;;;;;;;;;;6.50;99.90;;;5.61;81.76;102695.88;2567136;30;138063;-40
2022/03/23 07:32:10;;;;;;;;;;;6.70;99.90;;;5.80;79.39;102698.81;2568377;30;138247;-40
2022/03/23 07:34:37;;;;;;;;;;;6.80;99.90;;;6.00;78.67;102697.91;2566125;30;137636;-41
2022/03/23 07:37:05;;;;;;;;;;;7.10;99.90;;;6.22;77.83;102700.59;2567976;30;138267;-41
2022/03/23 07:39:32;;;;;;;;;;;7.30;99.90;;;6.42;79.09;102694.22;2567818;30;137158;-40
2022/03/23 07:42:02;;;;;;;;;;;7.50;99.90;;;6.62;75.63;102696.97;2568171;30;138929;-41
2022/03/23 07:44:32;;;;;;;;;;;7.70;99.90;;;6.80;73.91;102694.44;2567735;30;139500;-40
2022/03/23 07:47:07;;;;;;;;;;;7.80;99.90;;;7.09;72.67;102693.59;2567531;30;137356;-41
2022/03/23 07:49:35;;;;;;;;;;;8.10;99.90;;;7.24;72.53;102699.44;2568388;30;137108;-41
2022/03/23 07:52:03;;;;;;;;;;;8.30;99.90;;;7.40;70.08;102698.81;2568113;30;137380;-41
2022/03/23 07:54:31;;;;;;;;;;;8.40;99.90;;;7.58;67.44;102700.81;2567288;30;137590;-41
2022/03/23 07:56:59;;;;;;;;;;;8.60;99.90;;;7.75;68.62;102701.91;2567046;30;138204;-40
2022/03/23 07:59:26;;;;;;;;;;;8.70;99.90;;;7.92;66.48;102714.69;2567564;30;137904;-41
2022/03/23 08:01:54;;;;;;;;;;;8.90;99.90;;;8.10;66.34;102707.66;2568791;30;138454;-41
2022/03/23 08:04:22;;;;;;;;;;;9.10;99.90;;;8.26;65.54;102709.72;2569000;30;138058;-41
2022/03/23 08:06:49;;;;;;;;;;;9.20;99.90;;;8.42;62.05;102717.22;2568131;30;138923;-40
2022/03/23 08:09:16;;;;;;;;;;;9.40;99.90;;;8.59;63.11;102712.84;2568821;30;136909;-41
2022/03/23 08:11:44;;;;;;;;;;;9.50;99.90;;;8.72;60.49;102716.03;2569016;30;138287;-41
2022/03/23 08:14:11;;;;;;;;;;;9.70;99.80;;;8.84;59.50;102716.66;2567471;30;136632;-41
2022/03/23 08:16:39;;;;;;;;;;;9.80;99.00;;;8.97;61.88;102724.44;2568789;30;138276;-41
2022/03/23 08:19:06;;;;;;;;;;;10.00;99.90;;;9.09;62.25;102722.34;2568797;30;137142;-41
2022/03/23 08:21:34;;;;;;;;;;;10.10;99.70;;;9.25;60.89;102709.91;2568310;30;137559;-41
2022/03/23 08:24:02;;;;;;;;;;;10.20;99.40;;;9.33;59.59;102704.50;2565162;30;138269;-41
2022/03/23 08:26:29;;;;;;;;;;;10.40;98.60;;;9.44;57.87;102714.31;2567302;30;137269;-41
2022/03/23 08:28:57;;;;;;;;;;;10.40;97.30;;;9.48;57.22;102711.13;2567265;30;137107;-40
2022/03/23 08:31:25;;;;;;;;;;;10.50;96.80;;;9.61;58.59;102707.97;2568393;30;138523;-41
2022/03/23 08:33:52;;;;;;;;;;;10.70;97.10;;;9.73;56.70;102715.88;2567929;30;138276;-41
2022/03/23 08:36:20;;;;;;;;;;;10.80;96.40;;;9.77;56.99;102712.66;2568839;30;138110;-41
2022/03/23 08:38:47;;;;;;;;;;;10.80;96.00;;;9.89;56.41;102706.94;2569167;30;137226;-41
2022/03/23 08:41:15;;;;;;;;;;;10.90;95.90;;;10.02;56.06;102717.38;2566644;30;139495;-41
2022/03/23 08:43:42;;;;;;;;;;;11.00;95.70;;;10.11;55.99;102710.97;2567792;30;136960;-41
2022/03/23 08:46:12;;;;;;;;;;;11.10;95.50;;;10.27;56.30;102720.22;2568260;30;137135;-41
2022/03/23 08:48:40;;;;;;;;;;;11.30;95.60;;;10.42;58.10;102710.44;2568519;30;136990;-41
2022/03/23 08:51:07;;;;;;;;;;;11.40;96.50;;;10.57;56.38;102716.13;2565938;30;138543;-41
2022/03/23 08:53:35;;;;;;;;;;;11.50;95.40;;;10.71;54.66;102711.88;2568350;30;136668;-41
2022/03/23 08:56:02;;;;;;;;;;;11.60;94.60;;;10.84;54.14;102714.13;2569070;30;137647;-41
2022/03/23 08:58:30;;;;;;;;;;;11.70;94.10;;;10.99;54.32;102711.59;2568203;30;136751;-41
2022/03/23 09:00:58;;;;;;;;;;;11.90;94.20;;;11.07;54.14;102718.94;2567619;30;137227;-41
2022/03/23 09:03:26;;;;;;;;;;;12.00;94.20;;;11.19;53.74;102714.84;2566190;30;137551;-41
2022/03/23 09:05:54;;;;;;;;;;;12.10;93.70;;;11.29;51.83;102719.28;2568757;30;138119;-41
2022/03/23 09:08:21;;;;;;;;;;;12.20;92.40;;;11.37;51.89;102711.09;2568724;30;137884;-41
2022/03/23 09:10:49;;;;;;;;;;;12.30;92.20;;;11.50;52.79;102713.28;2567518;30;137262;-41
2022/03/23 09:13:17;;;;;;;;;;;12.40;93.00;;;11.49;49.91;102704.22;2569139;30;137110;-41
2022/03/23 09:15:44;;;;;;;;;;;12.50;91.10;;;11.57;49.19;102711.56;2567810;30;137891;-41
2022/03/23 09:18:12;;;;;;;;;;;12.60;90.80;;;11.63;49.73;102721.81;2568685;30;137163;-43
2022/03/23 09:20:40;;;;;;;;;;;12.60;90.50;;;11.80;51.18;102717.19;2568995;30;138371;-40
2022/03/23 09:23:08;;;;;;;;;;;12.70;91.30;;;11.82;52.00;102692.38;2568512;30;137014;-41
2022/03/23 09:25:36;;;;;;;;;;;12.90;91.90;;;12.10;51.08;102713.88;2569374;30;138481;-40
2022/03/23 09:28:04;;;;;;;;;;;13.00;91.20;;;12.26;51.50;102720.31;2566572;30;137281;-41
2022/03/23 09:30:32;;;;;;;;;;;13.10;91.50;;;12.39;48.92;102711.53;2568653;30;137728;-41
2022/03/23 09:33:00;;;;;;;;;;;13.30;90.10;;;12.50;49.68;102717.47;2568637;30;137239;-41
2022/03/23 09:35:28;;;;;;;;;;;13.40;90.20;;;12.65;49.04;102714.81;2568873;30;138477;-41
2022/03/23 09:37:57;;;;;;;;;;;13.50;89.90;;;12.76;50.53;102712.69;2568017;30;136730;-41
2022/03/23 09:40:31;;;;;;;;;;;13.60;90.60;;;12.79;46.70;102715.06;2568503;30;138536;-41
2022/03/23 09:43:02;;;;;;;;;;;13.70;86.60;;;12.92;47.62;102704.38;2567562;30;137050;-40
2022/03/23 09:45:51;;;;;;;;;;;13.80;87.60;;;13.03;46.31;102710.44;2568384;30;138483;-41
2022/03/23 09:48:26;;;;;;;;;;;13.90;86.40;;;13.15;45.76;102702.66;2568102;30;136733;-41
2022/03/23 09:50:55;;;;;;;;;;;14.00;85.70;;;13.25;45.62;102703.22;2567250;30;137747;-41
2022/03/23 09:53:24;;;;;;;;;;;14.10;85.10;;;13.32;44.56;102704.22;2567987;30;137933;-41
2022/03/23 09:55:53;;;;;;;;;;;14.20;83.90;;;13.38;44.09;102695.25;2568913;30;138028;-41
2022/03/23 09:58:20;;;;;;;;;;;14.20;83.20;;;13.47;43.23;102697.94;2568005;30;137176;-41
2022/03/23 10:00:49;;;;;;;;;;;14.30;81.90;;;13.56;42.34;102699.56;2569096;30;137492;-41
2022/03/23 10:03:35;;;;;;;;;;;;;;;13.70;43.03;102697.88;2569733;30;136861;-41
2022/03/23 10:06:24;;;;;;;;;;;14.40;81.50;;;13.85;42.16;102699.78;2567560;30;139582;-41
2022/03/23 10:09:13;;;;;;;;;;;14.60;79.70;;;13.97;40.70;102700.16;2568518;30;137058;-41
2022/03/23 10:12:21;;;;;;;;;;;14.70;78.30;;;14.12;42.58;102705.63;2568195;30;138092;-41
2022/03/23 10:15:26;;;;;;;;;;;14.90;80.70;;;14.22;41.51;102701.56;2568526;30;136775;-41
2022/03/23 10:18:06;;;;;;;;;;;15.00;79.30;;;14.32;42.20;102705.88;2566447;30;139177;-41
2022/03/23 10:20:34;;;;;;;;;;;15.10;79.60;;;14.46;43.25;102699.53;2569317;30;137396;-41
2022/03/23 10:23:06;;;;;;;;;;;15.30;81.00;;;14.62;42.98;102706.69;2566590;30;138608;-41
2022/03/23 10:25:33;;;;;;;;;;;15.40;80.20;;;14.71;40.49;102701.09;2567676;30;137894;-41
2022/03/23 10:28:12;;;;;;;;;;;15.50;76.40;;;14.72;39.05;102703.66;2566443;30;137134;-41
2022/03/23 10:30:40;;;;;;;;;;;15.50;74.50;;;14.88;40.86;102697.06;2568119;30;137316;-41
2022/03/23 10:33:22;;;;;;;;;;;15.60;77.10;;;15.06;39.87;102693.84;2568352;30;139107;-41
2022/03/23 10:35:50;;;;;;;;;;;15.80;75.80;;;15.22;38.92;102697.38;2567965;30;137462;-41
2022/03/23 10:38:23;;;;;;;;;;;15.90;74.90;;;15.35;38.59;102688.38;2568173;30;138327;-41
2022/03/23 10:40:52;;;;;;;;;;;16.10;73.60;;;15.43;40.42;102688.22;2568444;30;137187;-41
2022/03/23 10:43:23;;;;;;;;;;;16.20;75.40;;;15.50;36.65;102691.03;2568378;30;139097;-41
2022/03/23 10:45:51;;;;;;;;;;;16.30;71.50;;;15.54;38.17;102684.06;2567749;30;137178;-41
2022/03/23 10:48:19;;;;;;;;;;;16.30;72.30;;;15.59;37.42;102689.81;2568351;30;138855;-41
2022/03/23 10:50:57;;;;;;;;;;;16.40;72.00;;;15.67;38.83;102678.69;2566446;30;137232;-41
2022/03/23 10:53:35;;;;;;;;;;;16.40;73.10;;;15.64;39.15;102675.47;2567791;30;139082;-41
2022/03/23 10:56:03;;;;;;;;;;;16.50;73.60;;;15.75;40.25;102679.56;2567393;30;137322;-41
2022/03/23 10:58:32;;;;;;;;;;;16.60;75.50;;;15.86;38.27;102683.66;2568524;30;138115;-41
2022/03/23 11:01:05;;;;;;;;;;;16.70;73.30;;;15.96;38.13;102686.91;2568475;30;137122;-41
2022/03/23 11:03:48;;;;;;;;;;;16.80;72.40;;;16.07;37.22;102679.97;2568726;30;137769;-41
2022/03/23 11:06:25;;;;;;;;;;;16.90;71.20;;;16.27;38.92;102681.97;2568447;30;136755;-41
2022/03/23 11:08:53;;;;;;;;;;;17.10;72.30;;;16.46;37.97;102680.34;2568629;30;138413;-41
2022/03/23 11:17:28;;;;;;;;;;;17.40;73.20;;;16.64;38.88;102669.59;2567255;30;137149;-41
2022/03/23 11:19:56;;;;;;;;;;;17.50;71.40;;;16.56;37.08;102671.69;2565541;30;138660;-41
2022/03/23 11:22:24;;;;;;;;;;;17.50;69.50;;;16.70;37.03;102673.41;2567621;30;137394;-41
2022/03/23 11:24:51;;;;;;;;;;;17.60;70.20;;;16.66;35.96;102666.63;2568201;30;139194;-40
2022/03/23 11:27:19;;;;;;;;;;;17.60;68.10;;;16.61;34.72;102659.00;2568582;30;138810;-41
2022/03/23 11:29:48;;;;;;;;;;;17.60;66.60;;;16.82;37.35;102669.00;2569847;30;138350;-41
2022/03/23 11:32:32;;;;;;;;;;;17.70;69.90;;;16.97;38.34;102659.66;2568149;30;137954;-41
2022/03/23 11:35:02;;;;;;;;;;;17.80;71.00;;;16.91;35.87;102661.38;2568318;30;138168;-41
2022/03/23 11:37:34;;;;;;;;;;;17.90;67.00;;;16.92;34.38;102657.56;2568230;30;137069;-40
2022/03/23 11:40:02;;;;;;;;;;;17.90;65.90;;;16.89;33.37;102655.22;2570179;30;136822;-41
2022/03/23 11:42:29;;;;;;;;;;;17.90;64.40;;;17.01;33.02;102651.84;2568289;30;136829;-41